Weather at RAF Akrotiri

Public forecast

Using degrees Celsius for public forecast. Weather courtesy of forecast.io.

Current aviation weather report (METAR) for RAF Akrotiri

2023/02/01 09:50 (retrieved 20 minutes ago)

LCRA 010950Z 35002KT 9999 FEW030CB SCT045 BKN070 10/07 Q1005 TEMPO 2000 TSRA

Aviation forecast (TAF) for RAF Akrotiri

2023/02/01 09:33 (retrieved 37 minutes ago)

TAF TAF LCRA 010719Z 0109/0203 28010KT 9999 BKN035 BECMG 0109/0112 31016KT PROB40 TEMPO 0109/0115 6000 SHRA SCT030CB PROB30 TEMPO 0109/0115 VRB18G28KT 2000 +TSRA SCT014 BKN028CB PROB30 TEMPO 0115/0120 6000 SHRA